createdAt,value
2018-07-23T00:00:02.302Z,21.00
2018-07-23T00:01:02.249Z,21.08
2018-07-23T00:02:02.204Z,21.12
2018-07-23T00:03:02.187Z,21.18
2018-07-23T00:04:02.167Z,21.11
2018-07-23T00:05:02.141Z,21.01
2018-07-23T00:06:02.124Z,21.11
2018-07-23T00:07:02.100Z,21.12
2018-07-23T00:08:02.066Z,20.96
2018-07-23T00:09:02.053Z,20.96
2018-07-23T00:10:02.026Z,21.16
2018-07-23T00:11:02.018Z,21.06
2018-07-23T00:12:01.985Z,21.08
2018-07-23T00:13:01.958Z,21.11
2018-07-23T00:14:01.946Z,21.13
2018-07-23T00:15:01.908Z,21.12
2018-07-23T00:16:01.949Z,21.06
2018-07-23T00:17:01.872Z,21.09
2018-07-23T00:18:01.874Z,21.01
2018-07-23T00:19:01.823Z,21.00
2018-07-23T00:20:01.797Z,21.04
2018-07-23T00:21:01.776Z,21.08
2018-07-23T00:22:01.773Z,21.03
2018-07-23T00:23:01.775Z,20.97
2018-07-23T00:24:01.706Z,21.09
2018-07-23T00:25:01.724Z,21.00
2018-07-23T00:26:01.664Z,20.93
2018-07-23T00:27:01.748Z,20.94
2018-07-23T00:28:01.633Z,20.88
2018-07-23T00:29:01.654Z,20.88
2018-07-23T00:30:01.576Z,20.85
2018-07-23T00:31:01.568Z,20.81
2018-07-23T00:32:01.577Z,20.83
2018-07-23T00:33:01.515Z,20.78
2018-07-23T00:34:02.388Z,20.81
2018-07-23T00:35:01.480Z,20.91
2018-07-23T00:36:01.444Z,20.83
2018-07-23T00:37:01.423Z,20.91
2018-07-23T00:38:01.426Z,20.88
2018-07-23T00:39:01.389Z,20.94
2018-07-23T00:40:01.362Z,20.90
2018-07-23T00:41:01.358Z,20.81
2018-07-23T00:42:01.324Z,20.86
2018-07-23T00:43:01.281Z,20.83
2018-07-23T00:44:01.255Z,20.79
2018-07-23T00:45:01.264Z,20.79
2018-07-23T00:46:01.234Z,20.88
2018-07-23T00:47:01.192Z,20.85
2018-07-23T00:48:01.188Z,20.81
2018-07-23T00:49:01.176Z,20.75
2018-07-23T00:50:01.176Z,20.74
2018-07-23T00:51:01.103Z,20.68
2018-07-23T00:52:01.105Z,20.68
2018-07-23T00:53:01.084Z,20.74
2018-07-23T00:54:01.045Z,20.64
2018-07-23T00:55:01.038Z,20.68
2018-07-23T00:56:01.020Z,20.63
2018-07-23T00:57:00.992Z,20.66
2018-07-23T00:58:00.949Z,20.58
2018-07-23T00:59:00.965Z,20.57
2018-07-23T01:00:00.936Z,20.57
2018-07-23T01:01:00.874Z,20.54
2018-07-23T01:02:00.873Z,20.53
2018-07-23T01:03:00.867Z,20.49
2018-07-23T01:04:00.862Z,20.58
2018-07-23T01:05:00.793Z,20.56
2018-07-23T01:06:00.775Z,20.53
2018-07-23T01:07:00.795Z,20.49
2018-07-23T01:08:00.736Z,20.42
2018-07-23T01:09:00.699Z,20.37
2018-07-23T01:10:00.700Z,20.46
2018-07-23T01:12:32.297Z,20.37
2018-07-23T01:13:32.238Z,20.34
2018-07-23T01:14:32.215Z,20.37
2018-07-23T01:15:32.194Z,20.35
2018-07-23T01:16:32.175Z,20.35
2018-07-23T01:17:32.152Z,20.37
2018-07-23T01:18:32.129Z,20.32
2018-07-23T01:19:32.106Z,20.26
2018-07-23T01:20:32.088Z,20.26
2018-07-23T01:21:32.058Z,20.26
2018-07-23T01:22:32.046Z,20.27
2018-07-23T01:23:32.010Z,20.30
2018-07-23T01:24:32.056Z,20.35
2018-07-23T01:25:31.972Z,20.23
2018-07-23T01:26:31.948Z,20.30
2018-07-23T01:27:32.077Z,20.19
2018-07-23T01:28:31.926Z,20.38
2018-07-23T01:29:31.876Z,20.38
2018-07-23T01:30:31.859Z,20.38
2018-07-23T01:31:31.827Z,20.42
2018-07-23T01:32:31.815Z,20.40
2018-07-23T01:33:31.783Z,20.49
2018-07-23T01:34:31.767Z,20.46
2018-07-23T01:35:31.745Z,20.51
2018-07-23T01:36:31.764Z,20.38
2018-07-23T01:37:31.698Z,20.46
2018-07-23T01:38:31.668Z,20.37
2018-07-23T01:39:31.659Z,20.38
2018-07-23T01:40:31.625Z,20.40
2018-07-23T01:41:31.611Z,20.38
2018-07-23T01:42:31.586Z,20.42
2018-07-23T01:43:31.557Z,20.46
2018-07-23T01:44:31.539Z,20.51
2018-07-23T01:45:31.510Z,20.48
2018-07-23T01:46:31.493Z,20.54
2018-07-23T01:47:31.470Z,20.57
2018-07-23T01:48:31.449Z,20.53
2018-07-23T01:49:31.422Z,20.53
2018-07-23T01:50:31.405Z,20.54
2018-07-23T01:51:31.386Z,20.56
2018-07-23T01:52:31.352Z,20.51
2018-07-23T01:53:31.337Z,20.61
2018-07-23T01:54:31.316Z,20.57
2018-07-23T01:55:31.304Z,20.60
2018-07-23T01:56:31.262Z,20.58
2018-07-23T01:57:31.248Z,20.57
2018-07-23T01:58:31.221Z,20.58
2018-07-23T01:59:31.196Z,20.56
2018-07-23T02:00:31.174Z,20.61
2018-07-23T02:01:31.156Z,20.58
2018-07-23T02:02:31.138Z,20.57
2018-07-23T02:03:31.108Z,20.61
2018-07-23T02:04:31.082Z,20.56
2018-07-23T02:05:31.068Z,20.49
2018-07-23T02:06:31.046Z,20.56
2018-07-23T02:07:31.011Z,20.48
2018-07-23T02:08:30.991Z,20.37
2018-07-23T02:09:30.973Z,20.37
2018-07-23T02:10:30.948Z,20.41
2018-07-23T02:11:30.924Z,20.40
2018-07-23T02:12:30.903Z,20.46
2018-07-23T02:13:30.882Z,20.40
2018-07-23T02:14:30.855Z,20.40
2018-07-23T02:15:30.842Z,20.40
2018-07-23T02:16:30.824Z,20.44
2018-07-23T02:17:30.783Z,20.40
2018-07-23T02:18:30.761Z,20.46
2018-07-23T02:19:30.762Z,20.40
2018-07-23T02:20:30.719Z,20.40
2018-07-23T02:21:30.697Z,20.35
2018-07-23T02:22:30.674Z,20.37
2018-07-23T02:23:30.661Z,20.40
2018-07-23T02:24:30.629Z,20.49
2018-07-23T02:25:30.603Z,20.41
2018-07-23T02:26:30.595Z,20.38
2018-07-23T02:27:30.565Z,20.40
2018-07-23T02:28:30.547Z,20.37
2018-07-23T02:29:30.509Z,20.30
2018-07-23T02:30:30.503Z,20.26
2018-07-23T02:31:30.467Z,20.35
2018-07-23T02:32:30.447Z,20.26
2018-07-23T02:33:30.426Z,20.29
2018-07-23T02:34:30.404Z,20.32
2018-07-23T02:35:30.371Z,20.23
2018-07-23T02:36:30.361Z,20.35
2018-07-23T02:37:30.329Z,20.30
2018-07-23T02:38:30.314Z,20.32
2018-07-23T02:39:30.287Z,20.25
2018-07-23T02:40:30.268Z,20.19
2018-07-23T02:41:30.237Z,20.15
2018-07-23T02:42:30.222Z,20.18
2018-07-23T02:43:30.207Z,20.11
2018-07-23T02:44:30.172Z,20.11
2018-07-23T02:45:30.149Z,20.11
2018-07-23T02:46:30.131Z,20.01
2018-07-23T02:47:30.099Z,20.04
2018-07-23T02:48:30.083Z,20.04
2018-07-23T02:49:30.060Z,20.02
2018-07-23T02:50:30.037Z,20.00
2018-07-23T02:51:30.008Z,20.05
2018-07-23T02:52:29.988Z,19.98
2018-07-23T02:53:29.966Z,20.01
2018-07-23T02:54:29.952Z,19.98
2018-07-23T02:55:29.915Z,19.90
2018-07-23T02:56:29.896Z,19.87
2018-07-23T02:57:29.869Z,19.95
2018-07-23T02:58:29.852Z,19.89
2018-07-23T02:59:29.832Z,19.86
2018-07-23T03:00:29.817Z,19.74
2018-07-23T03:01:29.779Z,19.83
2018-07-23T03:02:29.760Z,19.87
2018-07-23T03:03:29.733Z,19.79
2018-07-23T03:04:29.708Z,19.78
2018-07-23T03:05:29.681Z,19.78
2018-07-23T03:06:29.664Z,19.74
2018-07-23T03:07:29.647Z,19.78
2018-07-23T03:08:29.611Z,19.78
2018-07-23T03:09:29.597Z,19.71
2018-07-23T03:10:29.571Z,19.82
2018-07-23T03:11:29.557Z,19.79
2018-07-23T03:12:29.530Z,19.79
2018-07-23T03:13:29.500Z,19.70
2018-07-23T03:14:29.531Z,19.72
2018-07-23T03:15:29.511Z,19.74
2018-07-23T03:16:29.438Z,19.71
2018-07-23T03:17:29.453Z,19.68
2018-07-23T03:18:29.385Z,19.68
2018-07-23T03:19:29.371Z,19.61
2018-07-23T03:20:29.354Z,19.57
2018-07-23T03:21:29.315Z,19.63
2018-07-23T03:22:29.294Z,19.67
2018-07-23T03:23:29.266Z,19.60
2018-07-23T03:24:29.244Z,19.63
2018-07-23T03:25:29.220Z,19.57
2018-07-23T03:26:29.195Z,19.61
2018-07-23T03:27:29.178Z,19.63
2018-07-23T03:28:29.154Z,19.60
2018-07-23T03:29:29.125Z,19.55
2018-07-23T03:30:29.105Z,19.57
2018-07-23T03:31:29.087Z,19.57
2018-07-23T03:32:29.057Z,19.64
2018-07-23T03:33:29.032Z,19.53
2018-07-23T03:34:29.021Z,19.53
2018-07-23T03:35:28.997Z,19.61
2018-07-23T03:36:28.960Z,19.49
2018-07-23T03:37:28.956Z,19.53
2018-07-23T03:38:28.920Z,19.50
2018-07-23T03:39:28.896Z,19.49
2018-07-23T03:40:28.866Z,19.42
2018-07-23T03:41:28.849Z,19.49
2018-07-23T03:42:28.819Z,19.50
2018-07-23T03:43:28.804Z,19.47
2018-07-23T03:44:28.785Z,19.50
2018-07-23T03:45:28.751Z,19.55
2018-07-23T03:46:28.735Z,19.43
2018-07-23T03:47:28.716Z,19.52
2018-07-23T03:48:28.687Z,19.42
2018-07-23T03:49:28.654Z,19.56
2018-07-23T03:50:28.636Z,19.49
2018-07-23T03:51:28.610Z,19.42
2018-07-23T03:52:28.583Z,19.45
2018-07-23T03:53:28.567Z,19.42
2018-07-23T03:54:28.548Z,19.45
2018-07-23T03:55:28.514Z,19.45
2018-07-23T03:56:28.497Z,19.43
2018-07-23T03:57:28.483Z,19.34
2018-07-23T03:58:28.453Z,19.40
2018-07-23T03:59:28.419Z,19.40
2018-07-23T04:00:28.412Z,19.38
2018-07-23T04:01:28.476Z,19.32
2018-07-23T04:02:28.354Z,19.31
2018-07-23T04:03:28.337Z,19.34
2018-07-23T04:04:28.320Z,19.34
2018-07-23T04:05:28.282Z,19.27
2018-07-23T04:06:28.260Z,19.30
2018-07-23T04:07:28.236Z,19.31
2018-07-23T04:08:28.212Z,19.30
2018-07-23T04:09:28.186Z,19.19
2018-07-23T04:10:28.162Z,19.17
2018-07-23T04:11:28.139Z,19.20
2018-07-23T04:12:28.115Z,19.24
2018-07-23T04:13:28.109Z,19.15
2018-07-23T04:14:28.069Z,19.20
2018-07-23T04:15:28.052Z,19.23
2018-07-23T04:16:28.025Z,19.20
2018-07-23T04:17:28.009Z,19.20
2018-07-23T04:18:27.976Z,19.19
2018-07-23T04:19:27.955Z,19.16
2018-07-23T04:20:27.934Z,19.27
2018-07-23T04:21:27.914Z,19.20
2018-07-23T04:22:27.878Z,19.23
2018-07-23T04:23:27.868Z,19.23
2018-07-23T04:24:27.850Z,19.25
2018-07-23T04:25:27.816Z,19.15
2018-07-23T04:26:27.788Z,19.19
2018-07-23T04:27:27.774Z,19.15
2018-07-23T04:28:27.746Z,19.15
2018-07-23T04:29:27.715Z,19.15
2018-07-23T04:30:27.693Z,19.09
2018-07-23T04:31:27.672Z,19.12
2018-07-23T04:32:27.651Z,19.13
2018-07-23T04:33:27.617Z,19.12
2018-07-23T04:34:27.610Z,19.13
2018-07-23T04:35:27.589Z,19.17
2018-07-23T04:36:27.554Z,19.16
2018-07-23T04:37:27.535Z,19.23
2018-07-23T04:38:27.510Z,19.19
2018-07-23T04:39:27.482Z,19.13
2018-07-23T04:40:27.456Z,19.19
2018-07-23T04:41:27.430Z,19.16
2018-07-23T04:42:27.405Z,19.16
2018-07-23T04:43:27.394Z,19.16
2018-07-23T04:44:27.363Z,19.02
2018-07-23T04:45:27.345Z,19.12
2018-07-23T04:46:27.312Z,19.06
2018-07-23T04:47:27.295Z,19.05
2018-07-23T04:48:27.268Z,19.06
2018-07-23T04:49:27.252Z,18.96
2018-07-23T04:50:27.220Z,19.15
2018-07-23T04:51:27.209Z,19.02
2018-07-23T04:52:27.177Z,19.09
2018-07-23T04:53:27.156Z,19.07
2018-07-23T04:54:27.132Z,19.06
2018-07-23T04:55:27.112Z,19.12
2018-07-23T04:56:27.076Z,19.15
2018-07-23T04:57:27.065Z,19.10
2018-07-23T04:58:27.029Z,19.09
2018-07-23T04:59:27.008Z,19.17
2018-07-23T05:00:26.988Z,19.16
2018-07-23T05:01:26.968Z,19.13
2018-07-23T05:02:26.942Z,19.10
2018-07-23T05:03:26.922Z,19.15
2018-07-23T05:04:26.897Z,19.12
2018-07-23T05:05:26.870Z,19.23
2018-07-23T05:06:26.843Z,19.13
2018-07-23T05:07:26.817Z,19.09
2018-07-23T05:08:26.798Z,19.13
2018-07-23T05:09:26.773Z,19.20
2018-07-23T05:10:26.752Z,19.19
2018-07-23T05:11:26.736Z,19.09
2018-07-23T05:12:26.704Z,19.09
2018-07-23T05:13:26.681Z,19.17
2018-07-23T05:14:26.656Z,19.09
2018-07-23T05:15:26.630Z,19.19
2018-07-23T05:16:26.607Z,19.13
2018-07-23T05:17:26.580Z,19.19
2018-07-23T05:18:26.560Z,19.23
2018-07-23T05:19:26.532Z,19.16
2018-07-23T05:20:26.512Z,19.05
2018-07-23T05:21:26.517Z,19.19
2018-07-23T05:22:26.471Z,19.10
2018-07-23T05:23:26.438Z,19.32
2018-07-23T05:24:26.440Z,19.17
2018-07-23T05:25:26.427Z,19.25
2018-07-23T05:26:26.365Z,19.20
2018-07-23T05:27:26.351Z,19.19
2018-07-23T05:28:26.323Z,19.31
2018-07-23T05:29:26.299Z,19.35
2018-07-23T05:30:26.273Z,19.31
2018-07-23T05:31:26.252Z,19.34
2018-07-23T05:32:26.250Z,19.32
2018-07-23T05:33:26.201Z,19.47
2018-07-23T05:34:26.209Z,19.42
2018-07-23T05:35:26.165Z,19.40
2018-07-23T05:36:26.137Z,19.46
2018-07-23T05:37:26.105Z,19.40
2018-07-23T05:38:26.129Z,19.49
2018-07-23T05:39:26.068Z,19.46
2018-07-23T05:40:26.069Z,19.40
2018-07-23T05:41:26.026Z,19.55
2018-07-23T05:42:25.990Z,19.53
2018-07-23T05:43:25.968Z,19.53
2018-07-23T05:44:25.948Z,19.55
2018-07-23T05:45:25.916Z,19.68
2018-07-23T05:46:25.902Z,19.65
2018-07-23T05:47:25.872Z,19.75
2018-07-23T05:48:25.864Z,19.64
2018-07-23T05:49:25.828Z,19.68
2018-07-23T05:50:25.814Z,19.74
2018-07-23T05:51:25.808Z,19.72
2018-07-23T05:52:25.756Z,19.72
2018-07-23T05:53:25.732Z,19.78
2018-07-23T05:54:25.714Z,19.74
2018-07-23T05:55:25.680Z,19.80
2018-07-23T05:56:25.660Z,19.74
2018-07-23T05:57:25.640Z,19.90
2018-07-23T05:58:25.610Z,19.87
2018-07-23T05:59:25.594Z,19.79
2018-07-23T06:00:25.562Z,19.89
2018-07-23T06:01:25.551Z,19.89
2018-07-23T06:02:25.528Z,20.02
2018-07-23T06:03:25.494Z,20.00
2018-07-23T06:04:25.475Z,20.02
2018-07-23T06:05:25.485Z,20.11
2018-07-23T06:06:25.490Z,20.19
2018-07-23T06:07:25.404Z,20.15
2018-07-23T06:08:25.393Z,20.16
2018-07-23T06:09:25.363Z,20.16
2018-07-23T06:10:25.334Z,20.26
2018-07-23T06:11:25.316Z,20.29
2018-07-23T06:12:25.287Z,20.27
2018-07-23T06:13:25.272Z,20.35
2018-07-23T06:14:25.265Z,20.38
2018-07-23T06:15:25.214Z,20.35
2018-07-23T06:16:25.199Z,20.38
2018-07-23T06:17:25.207Z,20.48
2018-07-23T06:18:25.148Z,20.53
2018-07-23T06:19:25.153Z,20.60
2018-07-23T06:20:25.102Z,20.56
2018-07-23T06:21:25.079Z,20.64
2018-07-23T06:22:25.056Z,20.68
2018-07-23T06:23:25.028Z,20.71
2018-07-23T06:24:25.017Z,20.67
2018-07-23T06:25:25.870Z,20.78
2018-07-23T06:26:24.972Z,20.75
2018-07-23T06:27:24.934Z,20.75
2018-07-23T06:28:24.920Z,20.75
2018-07-23T06:29:24.889Z,20.75
2018-07-23T06:30:24.926Z,20.71
2018-07-23T06:31:24.847Z,20.72
2018-07-23T06:32:24.819Z,20.79
2018-07-23T06:33:24.806Z,20.83
2018-07-23T06:34:24.786Z,20.85
2018-07-23T06:35:24.762Z,20.83
2018-07-23T06:36:24.730Z,20.85
2018-07-23T06:37:24.712Z,20.81
2018-07-23T06:38:24.686Z,20.90
2018-07-23T06:39:24.666Z,20.90
2018-07-23T06:40:24.650Z,20.93
2018-07-23T06:41:24.618Z,21.03
2018-07-23T06:42:24.598Z,21.06
2018-07-23T06:43:24.605Z,20.91
2018-07-23T06:44:24.553Z,21.06
2018-07-23T06:45:24.536Z,21.12
2018-07-23T06:46:24.508Z,21.09
2018-07-23T06:47:24.482Z,21.06
2018-07-23T06:48:24.472Z,21.11
2018-07-23T06:49:24.448Z,21.16
2018-07-23T06:50:24.413Z,21.22
2018-07-23T06:51:24.406Z,21.21
2018-07-23T06:52:24.380Z,21.30
2018-07-23T06:53:24.354Z,21.30
2018-07-23T06:54:24.320Z,21.41
2018-07-23T06:55:24.306Z,21.45
2018-07-23T06:56:24.301Z,21.45
2018-07-23T06:57:24.261Z,21.41
2018-07-23T06:58:24.245Z,21.45
2018-07-23T06:59:24.209Z,21.49
2018-07-23T07:00:24.189Z,21.55
2018-07-23T07:01:24.168Z,21.51
2018-07-23T07:02:24.145Z,21.64
2018-07-23T07:03:24.164Z,21.64
2018-07-23T07:04:24.100Z,21.48
2018-07-23T07:05:24.079Z,21.43
2018-07-23T07:06:24.069Z,21.64
2018-07-23T07:07:24.036Z,21.62
2018-07-23T07:08:24.017Z,21.62
2018-07-23T07:09:24.026Z,21.68
2018-07-23T07:10:23.966Z,21.73
2018-07-23T07:11:23.949Z,21.70
2018-07-23T07:12:23.958Z,21.67
2018-07-23T07:13:24.947Z,21.78
2018-07-23T07:14:23.920Z,21.77
2018-07-23T07:15:23.851Z,21.80
2018-07-23T07:16:23.832Z,21.68
2018-07-23T07:17:23.807Z,21.68
2018-07-23T07:18:23.787Z,21.71
2018-07-23T07:19:23.762Z,21.64
2018-07-23T07:20:23.737Z,21.70
2018-07-23T07:21:23.724Z,21.67
2018-07-23T07:22:23.702Z,21.73
2018-07-23T07:23:23.677Z,21.71
2018-07-23T07:24:23.650Z,21.80
2018-07-23T07:25:23.641Z,21.77
2018-07-23T07:26:23.615Z,21.73
2018-07-23T07:27:23.596Z,21.77
2018-07-23T07:28:23.571Z,21.76
2018-07-23T07:29:23.538Z,21.94
2018-07-23T07:30:23.516Z,21.99
2018-07-23T07:31:23.503Z,22.00
2018-07-23T07:32:23.481Z,22.12
2018-07-23T07:33:23.453Z,22.08
2018-07-23T07:34:23.438Z,22.15
2018-07-23T07:35:23.406Z,22.14
2018-07-23T07:36:23.392Z,22.18
2018-07-23T07:37:23.368Z,22.22
2018-07-23T07:38:23.365Z,22.12
2018-07-23T07:39:23.324Z,22.22
2018-07-23T07:40:23.302Z,22.08
2018-07-23T07:41:23.281Z,22.16
2018-07-23T07:42:23.262Z,22.20
2018-07-23T07:43:23.232Z,22.24
2018-07-23T07:44:23.214Z,22.24
2018-07-23T07:45:23.237Z,22.24
2018-07-23T07:46:23.272Z,22.29
2018-07-23T07:47:23.146Z,22.31
2018-07-23T07:48:23.130Z,22.34
2018-07-23T07:49:23.099Z,22.33
2018-07-23T07:50:23.077Z,22.39
2018-07-23T07:51:23.057Z,22.39
2018-07-23T07:52:23.040Z,22.48
2018-07-23T07:53:23.016Z,22.44
2018-07-23T07:54:23.017Z,22.45
2018-07-23T07:55:22.967Z,22.45
2018-07-23T07:56:22.950Z,22.44
2018-07-23T07:57:22.941Z,22.48
2018-07-23T07:58:22.910Z,22.54
2018-07-23T07:59:22.897Z,22.46
2018-07-23T08:00:22.868Z,22.46
2018-07-23T08:01:22.846Z,22.46
2018-07-23T08:02:22.840Z,22.45
2018-07-23T08:03:22.829Z,22.41
2018-07-23T08:04:22.781Z,22.48
2018-07-23T08:05:22.755Z,22.49
2018-07-23T08:06:22.747Z,22.57
2018-07-23T08:07:22.712Z,22.57
2018-07-23T08:08:22.691Z,22.54
2018-07-23T08:09:22.677Z,22.59
2018-07-23T08:10:22.674Z,22.60
2018-07-23T08:11:22.625Z,22.61
2018-07-23T08:12:22.624Z,22.67
2018-07-23T08:13:22.600Z,22.66
2018-07-23T08:14:22.562Z,22.70
2018-07-23T08:15:22.553Z,22.71
2018-07-23T08:16:22.523Z,22.78
2018-07-23T08:17:22.509Z,22.78
2018-07-23T08:18:22.476Z,22.79
2018-07-23T08:19:22.464Z,22.73
2018-07-23T08:20:22.447Z,22.76
2018-07-23T08:21:22.410Z,22.73
2018-07-23T08:22:22.393Z,22.81
2018-07-23T08:23:22.368Z,22.82
2018-07-23T08:24:22.358Z,22.82
2018-07-23T08:25:22.327Z,22.89
2018-07-23T08:26:22.312Z,22.88
2018-07-23T08:27:22.299Z,22.89
2018-07-23T08:28:22.290Z,22.81
2018-07-23T08:29:22.243Z,22.82
2018-07-23T08:30:22.230Z,22.79
2018-07-23T08:31:22.211Z,22.88
2018-07-23T08:32:22.254Z,22.94
2018-07-23T08:33:22.165Z,23.00
2018-07-23T08:34:22.148Z,23.12
2018-07-23T08:35:22.128Z,23.15
2018-07-23T08:36:22.094Z,23.15
2018-07-23T08:37:22.074Z,23.26
2018-07-23T08:38:22.057Z,23.29
2018-07-23T08:39:22.029Z,23.16
2018-07-23T08:40:22.006Z,23.28
2018-07-23T08:41:21.985Z,23.24
2018-07-23T08:42:21.973Z,23.18
2018-07-23T08:43:21.949Z,23.25
2018-07-23T08:44:21.924Z,23.37
2018-07-23T08:45:21.915Z,23.34
2018-07-23T08:46:21.907Z,23.41
2018-07-23T08:47:21.867Z,23.47
2018-07-23T08:48:21.845Z,23.44
2018-07-23T08:49:21.822Z,23.42
2018-07-23T08:50:21.801Z,23.44
2018-07-23T08:51:21.835Z,23.42
2018-07-23T08:52:21.788Z,23.55
2018-07-23T08:53:21.733Z,23.59
2018-07-23T08:54:21.714Z,23.67
2018-07-23T08:55:21.693Z,23.66
2018-07-23T08:56:21.671Z,23.66
2018-07-23T08:57:21.688Z,23.75
2018-07-23T08:58:21.627Z,23.74
2018-07-23T08:59:21.609Z,23.82
2018-07-23T09:00:21.583Z,23.81
2018-07-23T09:01:21.565Z,23.87
2018-07-23T09:02:21.606Z,23.82
2018-07-23T09:03:21.524Z,23.93
2018-07-23T09:04:21.507Z,23.92
2018-07-23T09:05:21.490Z,23.97
2018-07-23T09:06:21.461Z,24.00
2018-07-23T09:07:21.443Z,23.99
2018-07-23T09:08:21.435Z,24.00
2018-07-23T09:09:21.396Z,24.00
2018-07-23T09:10:21.381Z,23.97
2018-07-23T09:11:21.367Z,24.03
2018-07-23T09:12:21.334Z,23.99
2018-07-23T09:13:21.315Z,24.00
2018-07-23T09:14:21.289Z,24.08
2018-07-23T09:15:21.293Z,24.09
2018-07-23T09:16:21.251Z,24.03
2018-07-23T09:17:21.326Z,24.08
2018-07-23T09:18:21.208Z,24.07
2018-07-23T09:19:21.205Z,24.03
2018-07-23T09:20:21.171Z,24.08
2018-07-23T09:21:21.147Z,24.09
2018-07-23T09:22:21.130Z,24.24
2018-07-23T09:23:21.110Z,24.18
2018-07-23T09:24:21.091Z,24.27
2018-07-23T09:25:21.062Z,24.27
2018-07-23T09:26:21.049Z,24.32
2018-07-23T09:27:21.024Z,24.27
2018-07-23T09:28:21.007Z,24.27
2018-07-23T09:29:20.983Z,24.30
2018-07-23T09:30:20.973Z,24.26
2018-07-23T09:31:20.944Z,24.33
2018-07-23T09:32:20.926Z,24.37
2018-07-23T09:33:20.898Z,24.37
2018-07-23T09:34:20.891Z,24.44
2018-07-23T09:35:20.866Z,24.54
2018-07-23T09:36:20.845Z,24.48
2018-07-23T09:37:20.825Z,24.52
2018-07-23T09:38:20.799Z,24.63
2018-07-23T09:39:20.786Z,24.42
2018-07-23T09:40:20.755Z,24.46
2018-07-23T09:41:20.836Z,24.40
2018-07-23T09:42:20.721Z,24.56
2018-07-23T09:43:20.690Z,24.54
2018-07-23T09:44:20.677Z,24.63
2018-07-23T09:45:20.652Z,24.52
2018-07-23T09:46:20.634Z,24.61
2018-07-23T09:47:20.621Z,24.59
2018-07-23T09:48:20.594Z,24.49
2018-07-23T09:49:20.572Z,24.55
2018-07-23T09:50:20.547Z,24.59
2018-07-23T09:51:20.540Z,24.54
2018-07-23T09:52:20.508Z,24.61
2018-07-23T09:53:20.501Z,24.75
2018-07-23T09:54:20.476Z,24.77
2018-07-23T09:55:20.461Z,24.87
2018-07-23T09:56:20.435Z,24.94
2018-07-23T09:57:20.427Z,25.01
2018-07-23T09:58:20.392Z,25.01
2018-07-23T09:59:20.368Z,25.00
2018-07-23T10:00:20.357Z,25.02
2018-07-23T10:01:20.327Z,25.08
2018-07-23T10:02:20.313Z,25.09
2018-07-23T10:03:20.358Z,25.12
2018-07-23T10:04:20.294Z,25.12
2018-07-23T10:05:20.247Z,25.17
2018-07-23T10:06:20.265Z,25.17
2018-07-23T10:07:20.206Z,25.27
2018-07-23T10:08:20.192Z,25.17
2018-07-23T10:09:20.186Z,25.20
2018-07-23T10:10:20.150Z,25.23
2018-07-23T10:11:20.254Z,25.17
2018-07-23T10:12:20.110Z,25.19
2018-07-23T10:13:20.125Z,25.19
2018-07-23T10:14:20.080Z,25.15
2018-07-23T10:15:20.051Z,25.11
2018-07-23T10:16:20.027Z,25.22
2018-07-23T10:17:20.027Z,25.17
2018-07-23T10:18:20.005Z,25.15
2018-07-23T10:19:19.973Z,25.11
2018-07-23T10:20:19.948Z,25.19
2018-07-23T10:21:19.937Z,25.01
2018-07-23T10:22:19.910Z,25.01
2018-07-23T10:23:19.981Z,25.15
2018-07-23T10:24:19.872Z,25.15
2018-07-23T10:25:19.849Z,25.15
2018-07-23T10:26:19.840Z,25.15
2018-07-23T10:27:19.813Z,25.20
2018-07-23T10:28:19.824Z,25.23
2018-07-23T10:29:19.767Z,25.30
2018-07-23T10:30:19.746Z,25.24
2018-07-23T10:31:19.734Z,25.32
2018-07-23T10:32:19.710Z,25.29
2018-07-23T10:33:19.689Z,25.27
2018-07-23T10:34:19.671Z,25.34
2018-07-23T10:35:19.647Z,25.26
2018-07-23T10:36:19.638Z,25.24
2018-07-23T10:37:19.631Z,25.32
2018-07-23T10:38:19.600Z,25.37
2018-07-23T10:39:19.572Z,25.39
2018-07-23T10:40:19.555Z,25.49
2018-07-23T10:41:19.526Z,25.41
2018-07-23T10:42:19.512Z,25.52
2018-07-23T10:43:19.492Z,25.51
2018-07-23T10:44:19.471Z,25.47
2018-07-23T10:45:19.459Z,25.56
2018-07-23T10:46:19.431Z,25.56
2018-07-23T10:47:19.415Z,25.57
2018-07-23T10:48:19.391Z,25.49
2018-07-23T10:49:19.376Z,25.52
2018-07-23T10:50:19.352Z,25.49
2018-07-23T10:51:19.333Z,25.49
2018-07-23T10:52:19.310Z,25.62
2018-07-23T10:53:19.308Z,25.76
2018-07-23T10:54:19.272Z,25.74
2018-07-23T10:55:19.261Z,25.81
2018-07-23T10:56:19.235Z,25.78
2018-07-23T10:57:19.234Z,25.76
2018-07-23T10:58:19.205Z,25.86
2018-07-23T10:59:19.177Z,25.91
2018-07-23T11:00:19.166Z,25.88
2018-07-23T11:01:19.155Z,25.85
2018-07-23T11:02:19.122Z,25.89
2018-07-23T11:03:19.104Z,25.88
2018-07-23T11:04:19.140Z,25.85
2018-07-23T11:05:19.068Z,25.91
2018-07-23T11:06:19.054Z,25.88
2018-07-23T11:07:19.052Z,25.85
2018-07-23T11:08:19.014Z,25.85
2018-07-23T11:09:18.982Z,25.86
2018-07-23T11:10:18.974Z,25.88
2018-07-23T11:11:18.948Z,25.89
2018-07-23T11:12:18.937Z,25.93
2018-07-23T11:13:18.924Z,25.88
2018-07-23T11:14:18.895Z,25.97
2018-07-23T11:15:18.875Z,26.03
2018-07-23T11:16:18.846Z,26.15
2018-07-23T11:17:18.833Z,26.06
2018-07-23T11:18:18.891Z,26.16
2018-07-23T11:19:18.847Z,26.19
2018-07-23T11:20:18.788Z,26.32
2018-07-23T11:21:18.777Z,26.30
2018-07-23T11:22:18.734Z,26.32
2018-07-23T11:23:18.725Z,26.37
2018-07-23T11:24:18.700Z,26.35
2018-07-23T11:25:39.178Z,26.38
2018-07-23T11:26:18.684Z,26.38
2018-07-23T11:27:18.642Z,26.41
2018-07-23T11:28:18.636Z,26.47
2018-07-23T11:29:18.607Z,26.49
2018-07-23T11:30:18.589Z,26.42
2018-07-23T11:31:18.568Z,26.45
2018-07-23T11:32:18.548Z,26.50
2018-07-23T11:33:18.532Z,26.39
2018-07-23T11:34:18.514Z,26.42
2018-07-23T11:35:18.489Z,26.42
2018-07-23T11:36:18.484Z,26.56
2018-07-23T11:37:18.451Z,26.63
2018-07-23T11:38:18.441Z,26.74
2018-07-23T11:39:18.422Z,26.72
2018-07-23T11:40:18.394Z,26.81
2018-07-23T11:41:18.378Z,26.89
2018-07-23T11:42:18.363Z,26.97
2018-07-23T11:43:18.353Z,27.01
2018-07-23T11:44:18.333Z,27.06
2018-07-23T11:45:18.317Z,27.11
2018-07-23T11:46:24.980Z,27.23
2018-07-23T11:47:18.321Z,27.24
2018-07-23T11:48:18.248Z,27.33
2018-07-23T11:49:18.237Z,27.30
2018-07-23T11:50:18.215Z,27.30
2018-07-23T11:51:18.192Z,27.34
2018-07-23T11:52:18.177Z,27.36
2018-07-23T11:53:18.213Z,27.38
2018-07-23T11:54:18.142Z,27.48
2018-07-23T11:55:18.123Z,27.41
2018-07-23T11:56:18.102Z,27.45
2018-07-23T11:57:18.082Z,27.49
2018-07-23T11:58:18.066Z,27.65
2018-07-23T11:59:18.059Z,27.59
2018-07-23T12:00:18.039Z,27.65
2018-07-23T12:01:18.013Z,27.71
2018-07-23T12:02:18.026Z,27.71
2018-07-23T12:03:17.977Z,27.68
2018-07-23T12:04:18.016Z,27.76
2018-07-23T12:05:17.963Z,27.65
2018-07-23T12:06:17.930Z,27.59
2018-07-23T12:07:17.904Z,27.64
2018-07-23T12:08:17.889Z,27.62
2018-07-23T12:09:17.873Z,27.51
2018-07-23T12:10:17.860Z,27.38
2018-07-23T12:11:17.836Z,27.38
2018-07-23T12:12:17.825Z,27.43
2018-07-23T12:13:17.817Z,27.31
2018-07-23T12:14:17.781Z,27.23
2018-07-23T12:15:17.766Z,27.12
2018-07-23T12:16:17.749Z,27.21
2018-07-23T12:17:17.800Z,27.23
2018-07-23T12:18:17.722Z,27.16
2018-07-23T12:19:17.694Z,27.16
2018-07-23T12:20:17.681Z,27.18
2018-07-23T12:21:17.667Z,27.27
2018-07-23T12:22:17.640Z,27.38
2018-07-23T12:23:17.627Z,27.42
2018-07-23T12:24:17.608Z,27.46
2018-07-23T12:25:17.594Z,27.41
2018-07-23T12:26:17.570Z,27.46
2018-07-23T12:27:17.556Z,27.59
2018-07-23T12:28:17.542Z,27.62
2018-07-23T12:29:17.536Z,27.62
2018-07-23T12:30:17.503Z,27.68
2018-07-23T12:31:17.486Z,27.59
2018-07-23T12:32:17.459Z,27.64
2018-07-23T12:33:17.444Z,27.74
2018-07-23T12:34:17.427Z,27.87
2018-07-23T12:35:17.407Z,27.79
2018-07-23T12:36:17.400Z,27.74
2018-07-23T12:37:17.375Z,27.62
2018-07-23T12:38:17.355Z,27.48
2018-07-23T12:39:17.368Z,27.46
2018-07-23T12:40:17.325Z,27.42
2018-07-23T12:41:17.310Z,27.41
2018-07-23T12:42:17.307Z,27.45
2018-07-23T12:43:17.266Z,27.43
2018-07-23T12:44:17.261Z,27.49
2018-07-23T12:45:17.236Z,27.53
2018-07-23T12:46:17.237Z,27.59
2018-07-23T12:47:17.244Z,27.74
2018-07-23T12:48:17.186Z,27.72
2018-07-23T12:49:17.160Z,27.66
2018-07-23T12:50:17.156Z,27.72
2018-07-23T12:51:17.129Z,27.72
2018-07-23T12:52:17.104Z,27.72
2018-07-23T12:53:17.095Z,27.80